createdAt,value
2019-06-20T00:00:07.278Z,1003.73
2019-06-20T00:01:07.272Z,1003.78
2019-06-20T00:02:07.277Z,1003.80
2019-06-20T00:03:07.278Z,1003.85
2019-06-20T00:04:07.281Z,1003.93
2019-06-20T00:05:07.283Z,1003.96
2019-06-20T00:06:07.289Z,1004.00
2019-06-20T00:07:07.293Z,1003.89
2019-06-20T00:08:07.298Z,1003.87
2019-06-20T00:09:07.335Z,1003.91
2019-06-20T00:10:07.298Z,1003.91
2019-06-20T00:11:07.303Z,1003.92
2019-06-20T00:12:07.321Z,1003.95
2019-06-20T00:13:07.306Z,1003.96
2019-06-20T00:14:07.309Z,1003.96
2019-06-20T00:15:07.314Z,1004.12
2019-06-20T00:16:07.326Z,1004.09
2019-06-20T00:17:07.319Z,1004.13
2019-06-20T00:18:07.326Z,1004.11
2019-06-20T00:19:07.323Z,1004.08
2019-06-20T00:20:07.327Z,1004.06
2019-06-20T00:21:07.328Z,1004.12
2019-06-20T00:22:07.334Z,1004.06
2019-06-20T00:23:07.336Z,1004.12
2019-06-20T00:24:07.338Z,1004.14
2019-06-20T00:25:07.340Z,1004.13
2019-06-20T00:26:07.344Z,1004.09
2019-06-20T00:27:07.345Z,1004.02
2019-06-20T00:28:07.361Z,1003.92
2019-06-20T00:29:07.356Z,1003.77
2019-06-20T00:30:07.353Z,1003.72
2019-06-20T00:31:07.359Z,1003.80
2019-06-20T00:32:07.357Z,1003.71
2019-06-20T00:33:07.360Z,1003.69
2019-06-20T00:34:07.365Z,1003.64
2019-06-20T00:35:07.369Z,1003.57
2019-06-20T00:36:07.370Z,1003.51
2019-06-20T00:37:07.373Z,1003.44
2019-06-20T00:38:07.378Z,1003.51
2019-06-20T00:39:07.387Z,1003.56
2019-06-20T00:40:07.381Z,1003.60
2019-06-20T00:41:07.388Z,1003.39
2019-06-20T00:42:07.385Z,1003.49
2019-06-20T00:43:16.861Z,1003.52
2019-06-20T00:44:07.394Z,1003.46
2019-06-20T00:45:07.393Z,1003.55
2019-06-20T00:46:07.413Z,1003.55
2019-06-20T00:47:07.401Z,1003.52
2019-06-20T00:48:07.410Z,1003.50
2019-06-20T00:49:07.408Z,1003.51
2019-06-20T00:50:07.407Z,1003.54
2019-06-20T00:51:07.412Z,1003.52
2019-06-20T00:52:07.436Z,1003.51
2019-06-20T00:53:07.416Z,1003.56
2019-06-20T00:54:07.463Z,1003.54
2019-06-20T00:55:07.423Z,1003.53
2019-06-20T00:56:07.419Z,1003.53
2019-06-20T00:57:07.430Z,1003.57
2019-06-20T00:58:07.426Z,1003.66
2019-06-20T00:59:07.427Z,1003.75
2019-06-20T01:00:07.431Z,1003.81
2019-06-20T01:01:07.434Z,1003.96
2019-06-20T01:02:07.446Z,1004.11
2019-06-20T01:03:07.440Z,1004.31
2019-06-20T01:04:07.442Z,1004.51
2019-06-20T01:05:07.445Z,1004.10
2019-06-20T01:06:07.453Z,1004.34
2019-06-20T01:07:07.449Z,1004.26
2019-06-20T01:08:07.452Z,1004.10
2019-06-20T01:09:07.451Z,1003.93
2019-06-20T01:10:07.455Z,1003.98
2019-06-20T01:11:07.453Z,1004.30
2019-06-20T01:12:07.457Z,1004.42
2019-06-20T01:13:07.460Z,1004.58
2019-06-20T01:14:07.465Z,1004.76
2019-06-20T01:15:07.463Z,1004.79
2019-06-20T01:16:07.468Z,1004.73
2019-06-20T01:17:07.468Z,1004.64
2019-06-20T01:18:07.468Z,1004.56
2019-06-20T01:19:07.468Z,1004.52
2019-06-20T01:20:07.479Z,1004.55
2019-06-20T01:21:07.475Z,1004.50
2019-06-20T01:22:07.475Z,1004.42
2019-06-20T01:23:07.475Z,1004.37
2019-06-20T01:24:07.482Z,1004.36
2019-06-20T01:25:07.484Z,1004.26
2019-06-20T01:26:07.483Z,1004.23
2019-06-20T01:27:07.484Z,1004.27
2019-06-20T01:28:07.489Z,1004.32
2019-06-20T01:29:07.484Z,1004.33
2019-06-20T01:30:07.492Z,1004.39
2019-06-20T01:31:07.488Z,1004.40
2019-06-20T01:32:07.490Z,1004.46
2019-06-20T01:33:07.498Z,1004.38
2019-06-20T01:34:07.495Z,1004.38
2019-06-20T01:35:07.495Z,1004.33
2019-06-20T01:36:07.494Z,1004.32
2019-06-20T01:37:07.499Z,1004.24
2019-06-20T01:38:07.497Z,1004.21
2019-06-20T01:39:07.504Z,1004.20
2019-06-20T01:40:07.500Z,1004.15
2019-06-20T01:41:07.503Z,1004.14
2019-06-20T01:42:07.504Z,1004.14
2019-06-20T01:43:07.506Z,1004.10
2019-06-20T01:44:07.510Z,1004.04
2019-06-20T01:45:07.512Z,1004.01
2019-06-20T01:46:07.509Z,1003.98
2019-06-20T01:47:07.515Z,1003.99
2019-06-20T01:48:07.510Z,1003.96
2019-06-20T01:49:07.519Z,1003.98
2019-06-20T01:50:07.517Z,1004.05
2019-06-20T01:51:07.517Z,1004.03
2019-06-20T01:52:07.516Z,1004.02
2019-06-20T01:53:07.518Z,1004.02
2019-06-20T01:54:07.520Z,1004.03
2019-06-20T01:55:07.521Z,1004.00
2019-06-20T01:56:07.520Z,1004.01
2019-06-20T01:57:07.524Z,1003.98
2019-06-20T01:58:07.525Z,1004.07
2019-06-20T01:59:07.524Z,1004.01
2019-06-20T02:00:07.533Z,1004.04
2019-06-20T02:01:07.527Z,1004.03
2019-06-20T02:02:07.532Z,1004.02
2019-06-20T02:03:07.528Z,1004.01
2019-06-20T02:04:07.559Z,1003.98
2019-06-20T02:05:07.530Z,1003.96
2019-06-20T02:06:07.539Z,1003.92
2019-06-20T02:07:07.602Z,1003.94
2019-06-20T02:08:07.532Z,1003.91
2019-06-20T02:09:07.575Z,1003.90
2019-06-20T02:10:07.537Z,1003.95
2019-06-20T02:11:07.539Z,1003.91
2019-06-20T02:12:07.577Z,1003.94
2019-06-20T02:13:07.537Z,1003.91
2019-06-20T02:14:07.768Z,1003.91
2019-06-20T02:15:07.550Z,1003.88
2019-06-20T02:16:07.541Z,1003.88
2019-06-20T02:17:07.552Z,1003.85
2019-06-20T02:18:07.542Z,1003.81
2019-06-20T02:19:07.548Z,1003.79
2019-06-20T02:20:07.545Z,1003.75
2019-06-20T02:21:07.547Z,1003.78
2019-06-20T02:22:07.554Z,1003.75
2019-06-20T02:23:07.548Z,1003.74
2019-06-20T02:24:07.546Z,1003.75
2019-06-20T02:25:07.586Z,1003.76
2019-06-20T02:26:07.557Z,1003.78
2019-06-20T02:27:07.563Z,1003.74
2019-06-20T02:28:07.552Z,1003.76
2019-06-20T02:29:07.559Z,1003.74
2019-06-20T02:30:07.554Z,1003.76
2019-06-20T02:31:07.561Z,1003.75
2019-06-20T02:32:07.572Z,1003.76
2019-06-20T02:33:07.554Z,1003.80
2019-06-20T02:34:07.557Z,1003.76
2019-06-20T02:35:07.573Z,1003.76
2019-06-20T02:36:07.587Z,1003.74
2019-06-20T02:37:07.566Z,1003.72
2019-06-20T02:38:07.668Z,1003.70
2019-06-20T02:39:07.559Z,1003.72
2019-06-20T02:40:07.558Z,1003.72
2019-06-20T02:41:07.561Z,1003.75
2019-06-20T02:42:07.564Z,1003.78
2019-06-20T02:43:07.565Z,1003.79
2019-06-20T02:44:24.795Z,1003.79
2019-06-20T02:45:07.567Z,1003.80
2019-06-20T02:46:07.566Z,1003.83
2019-06-20T02:47:07.567Z,1003.87
2019-06-20T02:48:07.568Z,1003.93
2019-06-20T02:49:07.568Z,1004.00
2019-06-20T02:50:07.569Z,1004.04
2019-06-20T02:51:07.572Z,1004.10
2019-06-20T02:52:07.571Z,1004.14
2019-06-20T02:53:07.571Z,1004.16
2019-06-20T02:54:07.572Z,1004.20
2019-06-20T02:55:07.573Z,1004.20
2019-06-20T02:56:07.572Z,1004.25
2019-06-20T02:57:07.575Z,1004.24
2019-06-20T02:58:07.575Z,1004.24
2019-06-20T02:59:07.577Z,1004.27
2019-06-20T03:00:07.586Z,1004.25
2019-06-20T03:01:07.577Z,1004.25
2019-06-20T03:02:07.651Z,1004.23
2019-06-20T03:03:07.597Z,1004.24
2019-06-20T03:04:07.576Z,1004.32
2019-06-20T03:05:07.583Z,1004.32
2019-06-20T03:06:07.585Z,1004.33
2019-06-20T03:07:07.580Z,1004.34
2019-06-20T03:08:07.581Z,1004.37
2019-06-20T03:09:07.592Z,1004.42
2019-06-20T03:10:07.583Z,1004.48
2019-06-20T03:11:07.586Z,1004.60
2019-06-20T03:12:07.585Z,1004.69
2019-06-20T03:13:09.524Z,1004.78
2019-06-20T03:14:07.586Z,1004.81
2019-06-20T03:15:07.585Z,1004.82
2019-06-20T03:16:07.599Z,1004.84
2019-06-20T03:17:07.588Z,1004.81
2019-06-20T03:18:07.589Z,1004.78
2019-06-20T03:19:07.591Z,1004.74
2019-06-20T03:20:07.590Z,1004.75
2019-06-20T03:21:07.590Z,1004.74
2019-06-20T03:22:07.597Z,1004.64
2019-06-20T03:23:07.595Z,1004.69
2019-06-20T03:24:07.631Z,1004.66
2019-06-20T03:25:07.604Z,1004.64
2019-06-20T03:26:07.602Z,1004.69
2019-06-20T03:27:07.596Z,1004.70
2019-06-20T03:28:07.598Z,1004.71
2019-06-20T03:29:07.600Z,1004.69
2019-06-20T03:30:07.602Z,1004.65
2019-06-20T03:31:07.599Z,1004.63
2019-06-20T03:32:07.608Z,1004.64
2019-06-20T03:33:07.609Z,1004.60
2019-06-20T03:34:07.606Z,1004.57
2019-06-20T03:35:07.611Z,1004.47
2019-06-20T03:36:07.611Z,1004.37
2019-06-20T03:37:07.608Z,1004.39
2019-06-20T03:38:07.608Z,1004.33
2019-06-20T03:39:07.608Z,1004.35
2019-06-20T03:40:07.610Z,1004.37
2019-06-20T03:41:07.639Z,1004.35
2019-06-20T03:42:07.611Z,1004.33
2019-06-20T03:43:07.607Z,1004.38
2019-06-20T03:44:07.676Z,1004.37
2019-06-20T03:45:07.616Z,1004.41
2019-06-20T03:46:07.620Z,1004.41
2019-06-20T03:47:07.618Z,1004.42
2019-06-20T03:48:07.616Z,1004.43
2019-06-20T03:49:07.622Z,1004.42
2019-06-20T03:50:07.617Z,1004.34
2019-06-20T03:51:07.711Z,1004.38
2019-06-20T03:52:07.622Z,1004.30
2019-06-20T03:53:07.624Z,1004.39
2019-06-20T03:54:07.621Z,1004.46
2019-06-20T03:55:07.626Z,1004.51
2019-06-20T03:56:07.634Z,1004.58
2019-06-20T03:57:07.627Z,1004.53
2019-06-20T03:58:07.628Z,1004.55
2019-06-20T03:59:07.632Z,1004.56
2019-06-20T04:00:07.635Z,1004.56
2019-06-20T04:01:07.635Z,1004.53
2019-06-20T04:02:07.632Z,1004.57
2019-06-20T04:03:07.635Z,1004.55
2019-06-20T04:04:07.630Z,1004.53
2019-06-20T04:05:07.638Z,1004.52
2019-06-20T04:06:07.635Z,1004.48
2019-06-20T04:07:07.640Z,1004.51
2019-06-20T04:08:07.643Z,1004.50
2019-06-20T04:09:07.643Z,1004.50
2019-06-20T04:10:07.647Z,1004.44
2019-06-20T04:11:07.644Z,1004.42
2019-06-20T04:12:07.650Z,1004.42
2019-06-20T04:13:07.647Z,1004.42
2019-06-20T04:14:07.646Z,1004.42
2019-06-20T04:15:18.438Z,1004.36
2019-06-20T04:16:07.663Z,1004.35
2019-06-20T04:17:07.659Z,1004.36
2019-06-20T04:18:07.659Z,1004.35
2019-06-20T04:19:07.669Z,1004.30
2019-06-20T04:20:07.706Z,1004.31
2019-06-20T04:21:07.663Z,1004.33
2019-06-20T04:22:07.667Z,1004.30
2019-06-20T04:23:07.671Z,1004.33
2019-06-20T04:24:07.673Z,1004.36
2019-06-20T04:25:07.682Z,1004.40
2019-06-20T04:26:07.737Z,1004.43
2019-06-20T04:27:07.677Z,1004.43
2019-06-20T04:28:07.687Z,1004.43
2019-06-20T04:29:07.682Z,1004.41
2019-06-20T04:30:07.688Z,1004.39
2019-06-20T04:31:07.774Z,1004.38
2019-06-20T04:32:07.695Z,1004.42
2019-06-20T04:33:07.708Z,1004.43
2019-06-20T04:34:07.699Z,1004.41
2019-06-20T04:35:07.704Z,1004.46
2019-06-20T04:36:07.724Z,1004.50
2019-06-20T04:37:07.708Z,1004.54
2019-06-20T04:38:07.737Z,1004.55
2019-06-20T04:39:18.632Z,1004.57
2019-06-20T04:40:07.726Z,1004.61
2019-06-20T04:41:07.722Z,1004.65
2019-06-20T04:42:07.727Z,1004.67
2019-06-20T04:43:07.730Z,1004.70
2019-06-20T04:44:07.737Z,1004.69
2019-06-20T04:45:07.737Z,1004.63
2019-06-20T04:46:07.744Z,1004.61
2019-06-20T04:47:07.757Z,1004.77
2019-06-20T04:48:07.752Z,1004.85
2019-06-20T04:49:07.761Z,1004.83
2019-06-20T04:50:07.760Z,1004.83
2019-06-20T04:51:07.769Z,1004.88
2019-06-20T04:52:07.767Z,1004.85
2019-06-20T04:53:07.778Z,1004.83
2019-06-20T04:54:07.774Z,1004.80
2019-06-20T04:55:07.778Z,1004.74
2019-06-20T04:56:07.782Z,1004.77
2019-06-20T04:57:07.789Z,1004.76
2019-06-20T04:58:07.797Z,1004.67
2019-06-20T04:59:07.797Z,1004.69
2019-06-20T05:00:07.798Z,1004.65
2019-06-20T05:01:07.807Z,1004.70
2019-06-20T05:02:07.815Z,1004.63
2019-06-20T05:03:07.814Z,1004.69
2019-06-20T05:04:07.830Z,1004.71
2019-06-20T05:05:07.823Z,1004.77
2019-06-20T05:06:07.826Z,1004.80
2019-06-20T05:07:07.833Z,1004.76
2019-06-20T05:08:07.836Z,1004.81
2019-06-20T05:09:07.839Z,1004.78
2019-06-20T05:10:07.846Z,1004.75
2019-06-20T05:11:07.852Z,1004.74
2019-06-20T05:12:07.856Z,1004.75
2019-06-20T05:13:07.863Z,1004.73
2019-06-20T05:14:07.873Z,1004.71
2019-06-20T05:15:07.884Z,1004.67
2019-06-20T05:16:07.878Z,1004.77
2019-06-20T05:17:07.883Z,1004.80
2019-06-20T05:18:07.894Z,1004.84
2019-06-20T05:19:07.895Z,1004.92
2019-06-20T05:20:07.932Z,1004.85
2019-06-20T05:21:07.910Z,1004.79
2019-06-20T05:22:07.908Z,1004.83
2019-06-20T05:23:07.919Z,1004.82
2019-06-20T05:24:07.919Z,1004.87
2019-06-20T05:25:07.935Z,1004.87
2019-06-20T05:26:07.935Z,1004.87
2019-06-20T05:27:07.940Z,1004.88
2019-06-20T05:28:07.946Z,1004.89
2019-06-20T05:29:07.952Z,1004.88
2019-06-20T05:30:07.954Z,1004.89
2019-06-20T05:31:07.962Z,1004.91
2019-06-20T05:32:07.967Z,1004.90
2019-06-20T05:33:07.979Z,1004.87
2019-06-20T05:34:07.990Z,1004.88
2019-06-20T05:35:07.989Z,1004.83
2019-06-20T05:36:07.997Z,1004.71
2019-06-20T05:37:07.995Z,1004.73
2019-06-20T05:38:08.011Z,1004.67
2019-06-20T05:39:08.003Z,1004.65
2019-06-20T05:40:08.022Z,1004.68
2019-06-20T05:41:08.015Z,1004.62
2019-06-20T05:42:08.021Z,1004.62
2019-06-20T05:43:08.023Z,1004.60
2019-06-20T05:44:08.024Z,1004.56
2019-06-20T05:45:08.033Z,1004.59
2019-06-20T05:46:10.663Z,1004.55
2019-06-20T05:47:12.481Z,1004.48
2019-06-20T05:48:08.047Z,1004.45
2019-06-20T05:49:08.048Z,1004.47
2019-06-20T05:50:08.073Z,1004.54
2019-06-20T05:51:08.063Z,1004.54
2019-06-20T05:52:08.066Z,1004.55
2019-06-20T05:53:08.073Z,1004.55
2019-06-20T05:54:08.072Z,1004.64
2019-06-20T05:55:08.081Z,1004.64
2019-06-20T05:56:08.602Z,1004.65
2019-06-20T05:57:08.086Z,1004.59
2019-06-20T05:58:08.091Z,1004.60
2019-06-20T05:59:08.285Z,1004.66
2019-06-20T06:00:08.354Z,1004.72
2019-06-20T06:01:08.113Z,1004.82
2019-06-20T06:02:08.111Z,1004.85
2019-06-20T06:03:08.111Z,1004.93
2019-06-20T06:04:08.950Z,1004.97
2019-06-20T06:05:08.119Z,1005.00
2019-06-20T06:06:08.134Z,1004.94
2019-06-20T06:07:08.127Z,1004.92
2019-06-20T06:08:08.128Z,1004.94
2019-06-20T06:09:08.136Z,1004.96
2019-06-20T06:10:08.138Z,1004.98
2019-06-20T06:11:08.139Z,1005.08
2019-06-20T06:12:08.143Z,1005.09
2019-06-20T06:13:08.152Z,1005.09
2019-06-20T06:14:08.154Z,1005.13
2019-06-20T06:15:08.153Z,1005.19
2019-06-20T06:16:08.174Z,1005.21
2019-06-20T06:17:08.167Z,1005.25
2019-06-20T06:18:08.166Z,1005.39
2019-06-20T06:19:08.169Z,1005.49
2019-06-20T06:20:08.174Z,1005.52
2019-06-20T06:21:08.174Z,1005.53
2019-06-20T06:22:08.176Z,1005.66
2019-06-20T06:23:08.184Z,1005.70
2019-06-20T06:24:08.189Z,1005.82
2019-06-20T06:25:08.201Z,1005.92
2019-06-20T06:26:08.199Z,1006.05
2019-06-20T06:27:08.199Z,1006.31
2019-06-20T06:28:08.209Z,1006.53
2019-06-20T06:29:08.205Z,1006.70
2019-06-20T06:30:08.219Z,1006.85
2019-06-20T06:31:08.211Z,1006.99
2019-06-20T06:32:08.216Z,1007.06
2019-06-20T06:33:08.217Z,1007.12
2019-06-20T06:34:08.222Z,1006.82
2019-06-20T06:35:08.224Z,1006.68
2019-06-20T06:36:08.222Z,1006.85
2019-06-20T06:37:08.237Z,1007.01
2019-06-20T06:38:08.230Z,1007.07
2019-06-20T06:39:08.238Z,1007.00
2019-06-20T06:40:08.243Z,1006.89
2019-06-20T06:41:08.243Z,1006.90
2019-06-20T06:42:08.254Z,1006.88
2019-06-20T06:43:08.318Z,1006.89
2019-06-20T06:44:08.558Z,1006.84
2019-06-20T06:45:08.255Z,1006.95
2019-06-20T06:46:08.258Z,1006.88
2019-06-20T06:47:08.258Z,1006.86
2019-06-20T06:48:08.264Z,1006.87
2019-06-20T06:49:08.271Z,1006.84
2019-06-20T06:50:08.271Z,1006.93
2019-06-20T06:51:08.273Z,1006.99
2019-06-20T06:52:08.277Z,1007.04
2019-06-20T06:53:08.279Z,1006.93
2019-06-20T06:54:08.284Z,1006.94
2019-06-20T06:55:08.285Z,1006.93
2019-06-20T06:56:08.283Z,1006.95
2019-06-20T06:57:08.290Z,1006.90
2019-06-20T06:58:08.294Z,1006.91
2019-06-20T06:59:08.301Z,1006.92
2019-06-20T07:00:08.294Z,1006.89
2019-06-20T07:01:10.297Z,1006.92
2019-06-20T07:02:08.300Z,1006.84
2019-06-20T07:03:08.305Z,1006.80
2019-06-20T07:04:08.309Z,1006.79
2019-06-20T07:05:08.311Z,1006.81
2019-06-20T07:06:08.312Z,1006.78
2019-06-20T07:07:08.317Z,1006.76
2019-06-20T07:08:08.315Z,1006.75
2019-06-20T07:09:08.316Z,1006.75
2019-06-20T07:10:08.321Z,1006.70
2019-06-20T07:11:08.324Z,1006.64
2019-06-20T07:12:08.338Z,1006.58
2019-06-20T07:13:08.328Z,1006.48
2019-06-20T07:14:08.331Z,1006.46
2019-06-20T07:15:08.337Z,1006.43
2019-06-20T07:16:08.336Z,1006.44
2019-06-20T07:17:08.337Z,1006.44
2019-06-20T07:18:08.342Z,1006.44
2019-06-20T07:19:08.341Z,1006.53
2019-06-20T07:20:08.348Z,1006.59
2019-06-20T07:21:08.345Z,1006.57
2019-06-20T07:22:08.344Z,1006.60
2019-06-20T07:23:08.349Z,1006.58
2019-06-20T07:24:08.351Z,1006.55
2019-06-20T07:25:08.358Z,1006.56
2019-06-20T07:26:08.358Z,1006.58
2019-06-20T07:27:08.360Z,1006.63
2019-06-20T07:28:08.373Z,1006.61
2019-06-20T07:29:08.360Z,1006.60
2019-06-20T07:30:08.361Z,1006.56
2019-06-20T07:31:08.365Z,1006.57
2019-06-20T07:32:08.365Z,1006.57
2019-06-20T07:33:08.370Z,1006.55
2019-06-20T07:34:08.374Z,1006.56
2019-06-20T07:35:08.372Z,1006.55
2019-06-20T07:36:08.388Z,1006.57
2019-06-20T07:37:08.382Z,1006.55
2019-06-20T07:38:08.376Z,1006.55
2019-06-20T07:39:08.384Z,1006.56
2019-06-20T07:40:08.383Z,1006.60
2019-06-20T07:41:08.388Z,1006.60
2019-06-20T07:42:08.384Z,1006.65
2019-06-20T07:43:08.387Z,1006.64
2019-06-20T07:44:08.389Z,1006.68
2019-06-20T07:45:08.393Z,1006.66
2019-06-20T07:46:08.396Z,1006.70
2019-06-20T07:47:17.624Z,1006.61
2019-06-20T07:48:08.403Z,1006.61
2019-06-20T07:49:08.403Z,1006.61
2019-06-20T07:50:08.407Z,1006.56
2019-06-20T07:51:08.408Z,1006.57
2019-06-20T07:52:08.409Z,1006.53
2019-06-20T07:53:08.414Z,1006.50
2019-06-20T07:54:08.416Z,1006.47
2019-06-20T07:55:08.417Z,1006.46
2019-06-20T07:56:09.508Z,1006.43
2019-06-20T07:57:08.423Z,1006.40
2019-06-20T07:58:08.427Z,1006.43
2019-06-20T07:59:08.433Z,1006.38
2019-06-20T08:00:08.427Z,1006.40
2019-06-20T08:01:08.429Z,1006.38
2019-06-20T08:02:08.438Z,1006.42
2019-06-20T08:03:08.441Z,1006.40
2019-06-20T08:04:08.443Z,1006.45
2019-06-20T08:05:08.441Z,1006.47
2019-06-20T08:06:08.442Z,1006.48
2019-06-20T08:07:08.446Z,1006.50
2019-06-20T08:08:08.448Z,1006.50
2019-06-20T08:09:08.475Z,1006.46
2019-06-20T08:10:08.458Z,1006.43
2019-06-20T08:11:08.457Z,1006.48
2019-06-20T08:12:08.457Z,1006.51
2019-06-20T08:13:08.461Z,1006.50
2019-06-20T08:14:08.463Z,1006.50
2019-06-20T08:15:15.029Z,1006.45
2019-06-20T08:16:08.471Z,1006.41
2019-06-20T08:17:08.476Z,1006.37
2019-06-20T08:18:08.475Z,1006.38
2019-06-20T08:19:08.477Z,1006.37
2019-06-20T08:20:08.483Z,1006.40
2019-06-20T08:21:08.552Z,1006.41
2019-06-20T08:22:08.487Z,1006.45
2019-06-20T08:23:08.487Z,1006.47
2019-06-20T08:24:08.491Z,1006.47
2019-06-20T08:25:08.500Z,1006.47
2019-06-20T08:26:08.494Z,1006.44
2019-06-20T08:27:08.498Z,1006.43
2019-06-20T08:28:08.502Z,1006.42
2019-06-20T08:29:20.129Z,1006.49
2019-06-20T08:30:08.504Z,1006.41
2019-06-20T08:31:08.514Z,1006.57
2019-06-20T08:32:08.517Z,1006.40
2019-06-20T08:33:11.969Z,1006.40
2019-06-20T08:34:08.522Z,1006.43
2019-06-20T08:35:08.521Z,1006.41
2019-06-20T08:36:08.528Z,1006.37
2019-06-20T08:37:08.524Z,1006.39
2019-06-20T08:38:08.531Z,1006.32
2019-06-20T08:39:08.543Z,1006.26
2019-06-20T08:40:08.535Z,1006.23
2019-06-20T08:41:08.549Z,1006.17
2019-06-20T08:42:08.544Z,1006.28
2019-06-20T08:43:08.546Z,1006.24
2019-06-20T08:44:08.556Z,1006.24
2019-06-20T08:45:08.553Z,1006.30
2019-06-20T08:46:10.359Z,1006.28
2019-06-20T08:47:08.560Z,1006.34
2019-06-20T08:48:08.565Z,1006.40
2019-06-20T08:49:08.581Z,1006.40
2019-06-20T08:50:08.569Z,1006.60
2019-06-20T08:51:08.572Z,1006.37
2019-06-20T08:52:08.579Z,1006.44
2019-06-20T08:53:08.580Z,1006.48
2019-06-20T08:54:08.582Z,1006.54
2019-06-20T08:55:08.583Z,1006.61
2019-06-20T08:56:08.596Z,1006.68
2019-06-20T08:57:08.606Z,1006.83
2019-06-20T08:58:08.598Z,1006.84
2019-06-20T08:59:23.440Z,1006.86
2019-06-20T09:00:08.605Z,1006.71
2019-06-20T09:02:08.613Z,1006.64
2019-06-20T09:03:08.626Z,1006.69
2019-06-20T09:04:08.690Z,1006.69
2019-06-20T09:05:08.625Z,1006.72
2019-06-20T09:06:08.629Z,1006.71
2019-06-20T09:07:08.634Z,1006.72
2019-06-20T09:08:11.382Z,1006.71
2019-06-20T09:09:08.644Z,1006.72
2019-06-20T09:10:08.664Z,1006.71
2019-06-20T09:11:08.655Z,1006.73
2019-06-20T09:12:08.657Z,1006.69
2019-06-20T09:13:08.661Z,1006.68
2019-06-20T09:14:08.666Z,1006.66
2019-06-20T09:15:08.670Z,1006.59
2019-06-20T09:16:08.680Z,1006.63
2019-06-20T09:17:08.694Z,1006.59
2019-06-20T09:18:08.685Z,1006.58
2019-06-20T09:19:08.688Z,1006.56
2019-06-20T09:20:08.695Z,1006.61
2019-06-20T09:21:08.699Z,1006.59
2019-06-20T09:22:08.704Z,1006.57
2019-06-20T09:23:08.707Z,1006.55
2019-06-20T09:24:08.723Z,1006.51
2019-06-20T09:25:08.729Z,1006.58
2019-06-20T09:26:08.763Z,1006.58
2019-06-20T09:27:08.729Z,1006.56
2019-06-20T09:28:08.729Z,1006.58
2019-06-20T09:29:08.730Z,1006.59
2019-06-20T09:30:08.736Z,1006.57
2019-06-20T09:31:08.747Z,1006.59
2019-06-20T09:32:08.743Z,1006.52
2019-06-20T09:33:08.743Z,1006.50
2019-06-20T09:34:08.775Z,1006.49
2019-06-20T09:35:08.763Z,1006.47
2019-06-20T09:36:08.756Z,1006.51
2019-06-20T09:37:08.765Z,1006.56
2019-06-20T09:38:08.779Z,1006.65
2019-06-20T09:39:08.768Z,1006.75
2019-06-20T09:40:08.769Z,1006.82
2019-06-20T09:41:08.773Z,1006.91
2019-06-20T09:42:08.780Z,1006.91
2019-06-20T09:43:08.798Z,1006.92
2019-06-20T09:44:08.785Z,1006.93
2019-06-20T09:45:08.787Z,1006.91
2019-06-20T09:46:08.798Z,1006.96
2019-06-20T09:47:08.798Z,1006.99
2019-06-20T09:48:08.802Z,1006.97
2019-06-20T09:49:08.804Z,1006.96
2019-06-20T09:50:08.806Z,1006.99
2019-06-20T09:51:08.816Z,1007.05
2019-06-20T09:52:08.816Z,1007.01
2019-06-20T09:53:08.820Z,1007.05
2019-06-20T09:54:08.849Z,1007.01
2019-06-20T09:55:08.827Z,1007.01
2019-06-20T09:56:08.869Z,1007.03
2019-06-20T09:57:08.838Z,1007.05
2019-06-20T09:58:08.841Z,1007.05
2019-06-20T09:59:08.850Z,1007.03
2019-06-20T10:00:10.600Z,1007.09
2019-06-20T10:01:08.856Z,1007.07
2019-06-20T10:02:08.860Z,1007.09
2019-06-20T10:03:08.870Z,1007.09
2019-06-20T10:04:08.867Z,1007.09
2019-06-20T10:05:08.968Z,1007.03
2019-06-20T10:06:14.007Z,1007.07
2019-06-20T10:07:08.883Z,1007.08
2019-06-20T10:08:08.879Z,1007.08
2019-06-20T10:09:08.885Z,1007.06
2019-06-20T10:10:08.899Z,1007.09
2019-06-20T10:11:08.892Z,1007.06
2019-06-20T10:12:08.903Z,1007.10
2019-06-20T10:13:08.903Z,1007.12
2019-06-20T10:14:08.911Z,1007.12
2019-06-20T10:15:08.913Z,1007.15
2019-06-20T10:16:08.916Z,1007.18
2019-06-20T10:17:08.920Z,1007.18
2019-06-20T10:18:08.926Z,1007.20
2019-06-20T10:19:08.931Z,1007.19
2019-06-20T10:20:08.990Z,1007.18
2019-06-20T10:21:08.939Z,1007.18
2019-06-20T10:22:08.942Z,1007.19
2019-06-20T10:23:08.949Z,1007.19
2019-06-20T10:24:08.954Z,1007.18
2019-06-20T10:25:08.962Z,1007.20
2019-06-20T10:26:08.962Z,1007.21
2019-06-20T10:27:08.968Z,1007.16
2019-06-20T10:28:08.974Z,1007.22
2019-06-20T10:29:08.979Z,1007.22
2019-06-20T10:30:14.254Z,1007.25
2019-06-20T10:31:08.987Z,1007.30
2019-06-20T10:32:08.992Z,1007.22
2019-06-20T10:33:08.998Z,1007.25
2019-06-20T10:34:09.001Z,1007.19
2019-06-20T10:35:09.005Z,1007.24
2019-06-20T10:36:09.029Z,1007.25
2019-06-20T10:37:09.017Z,1007.26
2019-06-20T10:38:09.022Z,1007.27
2019-06-20T10:39:09.029Z,1007.31
2019-06-20T10:40:09.028Z,1007.29
2019-06-20T10:41:09.033Z,1007.28
2019-06-20T10:42:09.039Z,1007.30
2019-06-20T10:43:09.045Z,1007.22
2019-06-20T10:44:09.051Z,1007.24
2019-06-20T10:45:09.056Z,1007.21
2019-06-20T10:46:09.057Z,1007.21
2019-06-20T10:47:09.060Z,1007.22
2019-06-20T10:48:09.069Z,1007.25
2019-06-20T10:49:09.068Z,1007.25
2019-06-20T10:50:09.075Z,1007.20
2019-06-20T10:51:09.079Z,1007.17
2019-06-20T10:52:09.083Z,1007.16
2019-06-20T10:53:09.091Z,1007.19
2019-06-20T10:54:09.092Z,1007.20
2019-06-20T10:55:09.100Z,1007.17
2019-06-20T10:56:09.103Z,1007.18
2019-06-20T10:57:09.104Z,1007.19
2019-06-20T10:58:09.112Z,1007.22
2019-06-20T10:59:09.118Z,1007.22
2019-06-20T11:00:09.117Z,1007.24
2019-06-20T11:01:09.122Z,1007.25
2019-06-20T11:02:09.132Z,1007.27
2019-06-20T11:03:09.139Z,1007.28
2019-06-20T11:04:09.139Z,1007.29
2019-06-20T11:05:09.141Z,1007.31
2019-06-20T11:06:09.167Z,1007.31
2019-06-20T11:07:09.156Z,1007.24
2019-06-20T11:08:09.151Z,1007.24
2019-06-20T11:09:09.160Z,1007.24
2019-06-20T11:10:09.170Z,1007.24
2019-06-20T11:11:09.173Z,1007.25
2019-06-20T11:12:09.178Z,1007.22
2019-06-20T11:13:09.177Z,1007.20
2019-06-20T11:14:09.181Z,1007.21
2019-06-20T11:15:09.191Z,1007.16
2019-06-20T11:16:09.193Z,1007.17
2019-06-20T11:17:09.199Z,1007.14
2019-06-20T11:18:09.204Z,1007.18
2019-06-20T11:19:09.211Z,1007.16
2019-06-20T11:20:09.213Z,1007.16
2019-06-20T11:21:09.214Z,1007.16
2019-06-20T11:22:09.221Z,1007.19
2019-06-20T11:23:09.224Z,1007.16
2019-06-20T11:24:09.228Z,1007.12
2019-06-20T11:25:09.237Z,1007.07
2019-06-20T11:26:09.237Z,1007.06
2019-06-20T11:27:09.243Z,1007.09
2019-06-20T11:28:09.248Z,1007.04
2019-06-20T11:29:09.252Z,1007.13
2019-06-20T11:30:09.268Z,1007.10
2019-06-20T11:31:09.264Z,1007.10
2019-06-20T11:32:09.269Z,1007.08
2019-06-20T11:33:09.274Z,1007.08
2019-06-20T11:34:09.275Z,1007.06
2019-06-20T11:35:09.280Z,1007.08
2019-06-20T11:36:09.302Z,1007.06
2019-06-20T11:37:09.303Z,1007.05
2019-06-20T11:38:09.294Z,1007.03
2019-06-20T11:39:09.300Z,1007.04
2019-06-20T11:40:09.302Z,1007.02
2019-06-20T11:41:09.306Z,1007.02
2019-06-20T11:42:09.314Z,1007.04
2019-06-20T11:43:09.316Z,1007.04
2019-06-20T11:44:09.324Z,1007.03
2019-06-20T11:45:09.334Z,1007.04
2019-06-20T11:46:09.332Z,1007.06
2019-06-20T11:47:09.335Z,1007.12
2019-06-20T11:48:09.341Z,1007.11
2019-06-20T11:49:09.349Z,1007.11
2019-06-20T11:50:09.363Z,1007.09
2019-06-20T11:51:09.360Z,1007.08
2019-06-20T11:52:09.421Z,1007.12
2019-06-20T11:53:09.371Z,1007.12
2019-06-20T11:54:09.373Z,1007.14
2019-06-20T11:55:09.377Z,1007.19
2019-06-20T11:56:09.462Z,1007.18
2019-06-20T11:57:09.457Z,1007.15
2019-06-20T11:58:09.393Z,1007.11
2019-06-20T11:59:09.397Z,1007.20
2019-06-20T12:00:09.401Z,1007.18
2019-06-20T12:01:09.408Z,1007.18
2019-06-20T12:02:09.421Z,1007.21
2019-06-20T12:03:09.417Z,1007.21
2019-06-20T12:04:09.579Z,1007.18
2019-06-20T12:05:09.429Z,1007.22
2019-06-20T12:06:09.434Z,1007.20